Terminal Aerodrome Forecast
Issued by NWS Pendleton, OR

Home | Current Version | Previous Version | Text Only | Print | Product List | Glossary On
Versions: 1 2 3 4 5 6 7 8 9 10 11 12 13 14
000
FTUS46 KPDT 311800 AAA
TAFPDT
TAF AMD
KPDT 311824Z 3118/0118 VRB06KT P6SM VCTS SCT130CB BKN200
     FM312000 34008KT P6SM SCT150 BKN200
     FM010400 11005KT P6SM SCT150 BKN250
     FM010700 14006KT P6SM SCT130 BKN150
     FM011200 19005KT P6SM SCT130 SCT250=

USA.gov is the U.S. government's official web portal to all federal, state and local government web resources and services.